Time;durP1;ratioP1;P1;durP2;ratioP2;P2;SDS_P1;SDS_P2;PMS_P1;PMS_P2;Temp;Humidity;BMP_temperature;BMP_pressure;BME280_temperature;BME280_humidity;BME280_pressure;Samples;Min_cycle;Max_cycle;Signal;HPM_P1;HPM_P2
2023/12/29 00:01:18;;;;;;;;;;;8.70;99.90;;;;;;5127008;27;20018;-69
2023/12/29 00:03:43;;;;;;;;;;;8.80;99.90;;;;;;5134658;27;20021;-69
2023/12/29 00:06:09;;;;;;;;;;;8.80;99.90;;;;;;5127017;27;20026;-69
2023/12/29 00:08:36;;;;;;;;;;;8.70;99.90;;;;;;5135562;27;19919;-69
2023/12/29 00:11:01;;;;;;;;;;;8.80;99.90;;;;;;5135202;27;19915;-69
2023/12/29 00:13:27;;;;;;;;;;;8.80;99.90;;;;;;5115701;27;19958;-69
2023/12/29 00:15:53;;;;;;;;;;;8.80;99.90;;;;;;5139423;27;19908;-69
2023/12/29 00:18:18;;;;;;;;;;;8.80;99.90;;;;;;5146777;27;19997;-69
2023/12/29 00:20:44;;;;;;;;;;;8.80;99.90;;;;;;5129119;27;20581;-69
2023/12/29 00:23:09;;;;;;;;;;;8.80;99.90;;;;;;5131637;27;20657;-69
2023/12/29 00:25:38;;;;;;;;;;;8.80;99.90;;;;;;5144870;27;19955;-69
2023/12/29 00:28:04;;;;;;;;;;;8.80;99.90;;;;;;5143377;27;20398;-69
2023/12/29 00:30:29;;;;;;;;;;;8.80;99.90;;;;;;5108066;27;19912;-69
2023/12/29 00:32:55;;;;;;;;;;;8.90;99.90;;;;;;5128099;27;19951;-69
2023/12/29 00:35:21;;;;;;;;;;;8.80;99.90;;;;;;5128721;27;20028;-69
2023/12/29 00:37:46;;;;;;;;;;;8.80;99.90;;;;;;5125672;27;19986;-69
2023/12/29 00:40:12;;;;;;;;;;;8.80;99.90;;;;;;5141487;27;19942;-69
2023/12/29 00:42:37;;;;;;;;;;;8.80;99.90;;;;;;5127535;27;19918;-69
2023/12/29 00:45:03;;;;;;;;;;;8.90;99.90;;;;;;5138304;27;19911;-69
2023/12/29 00:47:29;;;;;;;;;;;8.80;99.90;;;;;;5118088;27;20012;-69
2023/12/29 00:49:54;;;;;;;;;;;8.90;99.90;;;;;;5125481;27;19964;-69
2023/12/29 00:52:20;;;;;;;;;;;8.80;99.90;;;;;;5141622;27;19950;-69
2023/12/29 00:54:45;;;;;;;;;;;8.90;99.90;;;;;;5137790;27;20723;-69
2023/12/29 00:57:11;;;;;;;;;;;8.90;99.90;;;;;;5129618;27;19911;-69
2023/12/29 00:59:43;;;;;;;;;;;8.90;99.90;;;;;;5128749;27;19919;-69
2023/12/29 01:02:09;;;;;;;;;;;8.90;99.90;;;;;;5135713;27;19911;-69
2023/12/29 01:04:37;;;;;;;;;;;8.90;99.90;;;;;;5146108;27;19918;-69
2023/12/29 01:07:03;;;;;;;;;;;8.90;99.90;;;;;;5140666;27;19908;-69
2023/12/29 01:09:28;;;;;;;;;;;8.90;99.90;;;;;;5125070;27;19971;-69
2023/12/29 01:11:54;;;;;;;;;;;8.90;99.90;;;;;;5139026;27;19953;-69
2023/12/29 01:14:19;;;;;;;;;;;8.90;99.90;;;;;;5146011;27;19938;-69
2023/12/29 01:16:45;;;;;;;;;;;8.90;99.90;;;;;;5133327;27;19911;-69
2023/12/29 01:19:10;;;;;;;;;;;8.90;99.90;;;;;;5125107;27;20044;-69
2023/12/29 01:21:39;;;;;;;;;;;8.90;99.90;;;;;;5126785;27;19922;-69
2023/12/29 01:24:06;;;;;;;;;;;8.90;99.90;;;;;;5137347;27;20443;-69
2023/12/29 01:26:31;;;;;;;;;;;8.90;99.90;;;;;;5117246;27;20022;-69
2023/12/29 01:28:57;;;;;;;;;;;8.90;99.90;;;;;;5139152;27;20006;-69
2023/12/29 01:31:22;;;;;;;;;;;8.90;99.90;;;;;;5136669;27;19934;-69
2023/12/29 01:33:48;;;;;;;;;;;8.90;99.90;;;;;;5137205;27;19922;-69
2023/12/29 01:36:17;;;;;;;;;;;8.90;99.90;;;;;;5137133;27;19938;-69
2023/12/29 01:38:43;;;;;;;;;;;8.90;99.90;;;;;;5125249;27;20310;-69
2023/12/29 01:41:08;;;;;;;;;;;8.90;99.90;;;;;;5125096;27;19937;-69
2023/12/29 01:43:34;;;;;;;;;;;8.90;99.90;;;;;;5133567;27;19911;-69
2023/12/29 01:45:59;;;;;;;;;;;8.90;99.90;;;;;;5133472;27;20008;-69
2023/12/29 01:48:25;;;;;;;;;;;8.90;99.90;;;;;;5144491;27;19963;-69
2023/12/29 01:50:51;;;;;;;;;;;8.90;99.90;;;;;;5141465;27;19930;-69
2023/12/29 01:53:17;;;;;;;;;;;8.90;99.90;;;;;;5111705;27;19916;-69
2023/12/29 01:55:42;;;;;;;;;;;8.90;99.90;;;;;;5137344;27;20393;-69
2023/12/29 01:58:08;;;;;;;;;;;9.00;99.90;;;;;;5143757;27;19946;-69
2023/12/29 02:00:34;;;;;;;;;;;8.90;99.90;;;;;;5113778;27;20546;-69
2023/12/29 02:03:00;;;;;;;;;;;8.90;99.90;;;;;;5133808;27;19911;-69
2023/12/29 02:05:26;;;;;;;;;;;8.90;99.90;;;;;;5138994;27;19968;-69
2023/12/29 02:07:53;;;;;;;;;;;8.90;99.90;;;;;;5133766;27;20017;-69
2023/12/29 02:10:19;;;;;;;;;;;8.90;99.90;;;;;;5141343;27;19911;-69
2023/12/29 02:12:45;;;;;;;;;;;8.90;99.90;;;;;;5137021;27;19923;-69
2023/12/29 02:15:11;;;;;;;;;;;9.00;99.90;;;;;;5135832;27;20005;-69
2023/12/29 02:17:48;;;;;;;;;;;8.90;99.90;;;;;;5140776;27;19998;-69
2023/12/29 02:20:14;;;;;;;;;;;8.90;99.90;;;;;;5124745;27;20352;-69
2023/12/29 02:22:39;;;;;;;;;;;8.90;99.90;;;;;;5119167;27;19912;-69
2023/12/29 02:25:06;;;;;;;;;;;8.90;99.90;;;;;;5131745;27;19951;-69
2023/12/29 02:27:40;;;;;;;;;;;8.90;99.90;;;;;;5136073;27;19912;-69
2023/12/29 02:30:06;;;;;;;;;;;8.90;99.90;;;;;;5110144;27;20347;-69
2023/12/29 02:32:32;;;;;;;;;;;8.90;99.90;;;;;;5134201;27;19919;-69
2023/12/29 02:34:59;;;;;;;;;;;8.90;99.90;;;;;;5130244;27;19990;-69
2023/12/29 02:37:24;;;;;;;;;;;8.90;99.90;;;;;;5130212;27;19939;-69
2023/12/29 02:39:50;;;;;;;;;;;8.90;99.90;;;;;;5140895;27;19958;-69
2023/12/29 02:42:16;;;;;;;;;;;8.90;99.90;;;;;;5121825;27;20277;-69
2023/12/29 02:44:41;;;;;;;;;;;8.90;99.90;;;;;;5101977;27;20021;-69
2023/12/29 02:47:07;;;;;;;;;;;8.90;99.90;;;;;;5128585;27;19943;-68
2023/12/29 02:49:32;;;;;;;;;;;8.90;99.90;;;;;;5137785;27;19915;-69
2023/12/29 02:51:57;;;;;;;;;;;8.80;99.90;;;;;;5144253;27;19935;-69
2023/12/29 02:54:23;;;;;;;;;;;8.80;99.90;;;;;;5127713;27;19931;-69
2023/12/29 02:56:48;;;;;;;;;;;8.80;99.90;;;;;;5136909;27;20006;-69
2023/12/29 02:59:14;;;;;;;;;;;8.80;99.90;;;;;;5134135;27;20390;-69
2023/12/29 03:01:39;;;;;;;;;;;8.80;99.90;;;;;;5122632;27;19912;-69
2023/12/29 03:04:05;;;;;;;;;;;8.80;99.90;;;;;;5140228;27;19918;-69
2023/12/29 03:06:31;;;;;;;;;;;8.80;99.90;;;;;;5138531;27;19987;-69
2023/12/29 03:08:56;;;;;;;;;;;8.80;99.90;;;;;;5133177;27;20523;-69
2023/12/29 03:11:22;;;;;;;;;;;8.80;99.90;;;;;;5148743;27;19935;-69
2023/12/29 03:13:47;;;;;;;;;;;8.80;99.90;;;;;;5124256;27;19977;-69
2023/12/29 03:16:13;;;;;;;;;;;8.80;99.90;;;;;;5120199;27;19915;-69
2023/12/29 03:18:40;;;;;;;;;;;8.80;99.90;;;;;;5129173;27;20300;-69
2023/12/29 03:21:05;;;;;;;;;;;8.80;99.90;;;;;;5129063;27;19969;-69
2023/12/29 03:23:31;;;;;;;;;;;8.80;99.90;;;;;;5134380;27;20394;-69
2023/12/29 03:25:56;;;;;;;;;;;8.80;99.90;;;;;;5139993;27;19923;-69
2023/12/29 03:28:22;;;;;;;;;;;8.80;99.90;;;;;;5139732;27;20386;-69
2023/12/29 03:30:47;;;;;;;;;;;8.80;99.90;;;;;;5132989;27;19949;-69
2023/12/29 03:33:14;;;;;;;;;;;8.80;99.90;;;;;;5134900;27;19914;-69
2023/12/29 03:35:39;;;;;;;;;;;8.80;99.90;;;;;;5139087;27;20014;-69
2023/12/29 03:38:05;;;;;;;;;;;8.80;99.90;;;;;;5139472;27;20521;-69
2023/12/29 03:40:30;;;;;;;;;;;8.80;99.90;;;;;;5130558;27;20474;-69
2023/12/29 03:42:56;;;;;;;;;;;8.80;99.90;;;;;;5139264;27;19911;-69
2023/12/29 03:45:21;;;;;;;;;;;8.80;99.90;;;;;;5147855;27;20009;-69
2023/12/29 03:47:47;;;;;;;;;;;8.80;99.90;;;;;;5144340;27;19911;-69
2023/12/29 03:50:12;;;;;;;;;;;8.80;99.90;;;;;;5126845;27;19914;-69
2023/12/29 03:52:38;;;;;;;;;;;8.70;99.90;;;;;;5146211;27;19958;-69
2023/12/29 03:55:04;;;;;;;;;;;8.70;99.90;;;;;;5139441;27;19911;-69
2023/12/29 03:57:29;;;;;;;;;;;8.80;99.90;;;;;;5139143;27;19916;-69
2023/12/29 03:59:55;;;;;;;;;;;8.80;99.90;;;;;;5146143;27;19907;-69
2023/12/29 04:02:20;;;;;;;;;;;8.80;99.90;;;;;;5126291;27;19969;-69
2023/12/29 04:04:46;;;;;;;;;;;8.70;99.90;;;;;;5111021;27;19968;-69
2023/12/29 04:07:11;;;;;;;;;;;8.80;99.90;;;;;;5141162;27;20496;-69
2023/12/29 04:09:37;;;;;;;;;;;8.80;99.90;;;;;;5136961;27;20395;-69
2023/12/29 04:12:03;;;;;;;;;;;8.70;99.90;;;;;;5138899;27;19950;-69
2023/12/29 04:14:28;;;;;;;;;;;8.80;99.90;;;;;;5111880;27;19953;-69
2023/12/29 04:16:54;;;;;;;;;;;8.70;99.90;;;;;;5139090;27;19912;-69
2023/12/29 04:19:19;;;;;;;;;;;8.80;99.90;;;;;;5138592;27;19912;-69
2023/12/29 04:21:45;;;;;;;;;;;8.80;99.90;;;;;;5126962;27;19994;-69
2023/12/29 04:24:10;;;;;;;;;;;8.80;99.90;;;;;;5126399;27;20271;-69
2023/12/29 04:26:36;;;;;;;;;;;8.70;99.90;;;;;;5126088;27;19931;-69
2023/12/29 04:29:02;;;;;;;;;;;8.80;99.90;;;;;;5131482;27;19942;-69
2023/12/29 04:31:27;;;;;;;;;;;8.80;99.90;;;;;;5117847;27;19954;-69
2023/12/29 04:33:53;;;;;;;;;;;8.70;99.90;;;;;;5126727;27;19915;-69
2023/12/29 04:36:18;;;;;;;;;;;8.70;99.90;;;;;;5138613;27;19918;-69
2023/12/29 04:38:44;;;;;;;;;;;8.80;99.90;;;;;;5145625;27;20603;-69
2023/12/29 04:41:11;;;;;;;;;;;8.80;99.90;;;;;;5138162;27;20373;-69
2023/12/29 04:43:37;;;;;;;;;;;8.70;99.90;;;;;;5146301;27;19918;-69
2023/12/29 04:46:03;;;;;;;;;;;8.80;99.90;;;;;;5134257;27;19907;-69
2023/12/29 04:48:28;;;;;;;;;;;8.70;99.90;;;;;;5142749;27;19911;-69
2023/12/29 04:50:54;;;;;;;;;;;8.80;99.90;;;;;;5134325;27;19918;-69
2023/12/29 04:53:19;;;;;;;;;;;8.80;99.90;;;;;;5126343;27;19916;-69
2023/12/29 04:55:45;;;;;;;;;;;8.80;99.90;;;;;;5128855;27;19915;-69
2023/12/29 04:58:10;;;;;;;;;;;8.80;99.90;;;;;;5146500;27;19908;-69
2023/12/29 05:00:36;;;;;;;;;;;8.80;99.90;;;;;;5138020;27;19925;-69
2023/12/29 05:03:01;;;;;;;;;;;8.80;99.90;;;;;;5139506;27;20263;-69
2023/12/29 05:05:27;;;;;;;;;;;8.80;99.90;;;;;;5128883;27;19976;-69
2023/12/29 05:07:52;;;;;;;;;;;8.80;99.90;;;;;;5142371;27;20219;-69
2023/12/29 05:10:18;;;;;;;;;;;8.80;99.90;;;;;;5118161;27;20252;-69
2023/12/29 05:12:43;;;;;;;;;;;8.80;99.90;;;;;;5132718;27;19915;-69
2023/12/29 05:15:09;;;;;;;;;;;8.70;99.90;;;;;;5126646;27;19943;-69
2023/12/29 05:17:34;;;;;;;;;;;8.80;99.90;;;;;;5122699;27;19919;-69
2023/12/29 05:20:00;;;;;;;;;;;8.80;99.90;;;;;;5121700;27;20363;-69
2023/12/29 05:22:25;;;;;;;;;;;8.80;99.90;;;;;;5136291;27;20668;-69
2023/12/29 05:24:51;;;;;;;;;;;8.80;99.90;;;;;;5113195;27;19956;-69
2023/12/29 05:27:16;;;;;;;;;;;8.80;99.90;;;;;;5101051;27;20346;-69
2023/12/29 05:29:42;;;;;;;;;;;8.80;99.90;;;;;;5136116;27;19911;-69
2023/12/29 05:32:08;;;;;;;;;;;8.80;99.90;;;;;;5127067;27;20526;-69
2023/12/29 05:34:34;;;;;;;;;;;8.80;99.90;;;;;;5114235;27;19908;-69
2023/12/29 05:36:59;;;;;;;;;;;8.80;99.90;;;;;;5125430;27;20317;-69
2023/12/29 05:39:25;;;;;;;;;;;8.80;99.90;;;;;;5140629;27;20272;-69
2023/12/29 05:41:50;;;;;;;;;;;8.80;99.90;;;;;;5138789;27;19939;-69
2023/12/29 05:44:16;;;;;;;;;;;8.80;99.90;;;;;;5126673;27;19950;-69
2023/12/29 05:46:45;;;;;;;;;;;8.80;99.90;;;;;;5107369;27;20601;-69
2023/12/29 05:49:11;;;;;;;;;;;8.80;99.90;;;;;;5112246;27;19959;-69
2023/12/29 05:51:36;;;;;;;;;;;8.80;99.90;;;;;;5134958;27;19915;-69
2023/12/29 05:54:02;;;;;;;;;;;8.80;99.90;;;;;;5133393;27;19920;-69
2023/12/29 05:56:27;;;;;;;;;;;8.80;99.90;;;;;;5124813;27;20400;-69
2023/12/29 05:58:53;;;;;;;;;;;8.80;99.90;;;;;;5140455;27;19938;-69
2023/12/29 06:01:19;;;;;;;;;;;8.80;99.90;;;;;;5132294;27;19911;-69
2023/12/29 06:03:45;;;;;;;;;;;8.80;99.90;;;;;;5133254;27;20033;-69
2023/12/29 06:06:10;;;;;;;;;;;8.80;99.90;;;;;;5110068;27;19995;-69
2023/12/29 06:08:36;;;;;;;;;;;8.80;99.90;;;;;;5124416;27;19919;-69
2023/12/29 06:11:01;;;;;;;;;;;8.80;99.90;;;;;;5128632;27;19911;-69
2023/12/29 06:13:27;;;;;;;;;;;8.80;99.90;;;;;;5127953;27;19927;-69
2023/12/29 06:15:53;;;;;;;;;;;8.80;99.90;;;;;;5121151;27;19916;-69
2023/12/29 06:18:18;;;;;;;;;;;8.80;99.90;;;;;;5113136;27;19912;-69
2023/12/29 06:20:44;;;;;;;;;;;8.80;99.90;;;;;;5122277;27;19951;-69
2023/12/29 06:23:10;;;;;;;;;;;8.80;99.90;;;;;;5127423;27;20053;-69
2023/12/29 06:25:36;;;;;;;;;;;8.80;99.90;;;;;;5112935;27;20002;-69
2023/12/29 06:28:03;;;;;;;;;;;8.80;99.90;;;;;;5124046;27;20030;-69
2023/12/29 06:30:29;;;;;;;;;;;8.80;99.90;;;;;;5120045;27;20415;-69
2023/12/29 06:32:54;;;;;;;;;;;8.80;99.90;;;;;;5124771;27;19931;-69
2023/12/29 06:35:20;;;;;;;;;;;8.80;99.90;;;;;;5135716;27;19919;-69
2023/12/29 06:37:45;;;;;;;;;;;8.80;99.90;;;;;;5132362;27;20268;-69
2023/12/29 06:40:11;;;;;;;;;;;8.80;99.90;;;;;;5118879;27;19919;-69
2023/12/29 06:42:36;;;;;;;;;;;8.80;99.90;;;;;;5125976;27;19938;-69
2023/12/29 06:45:02;;;;;;;;;;;8.80;99.90;;;;;;5130297;27;19919;-69
2023/12/29 06:47:28;;;;;;;;;;;8.80;99.90;;;;;;5132717;27;20006;-69
2023/12/29 06:49:53;;;;;;;;;;;8.80;99.90;;;;;;5128131;27;19912;-69
2023/12/29 06:52:19;;;;;;;;;;;8.80;99.90;;;;;;5134100;27;20034;-69
2023/12/29 06:54:44;;;;;;;;;;;8.80;99.90;;;;;;5136343;27;19919;-69
2023/12/29 06:57:10;;;;;;;;;;;8.80;99.90;;;;;;5142754;27;20006;-69
2023/12/29 06:59:36;;;;;;;;;;;8.80;99.90;;;;;;5139599;27;19927;-69
2023/12/29 07:02:01;;;;;;;;;;;8.80;99.90;;;;;;5142086;27;19964;-69
2023/12/29 07:04:27;;;;;;;;;;;8.80;99.90;;;;;;5140265;27;20364;-69
2023/12/29 07:06:52;;;;;;;;;;;8.80;99.90;;;;;;5136451;27;19947;-69
2023/12/29 07:09:18;;;;;;;;;;;8.80;99.90;;;;;;5143960;27;19953;-69
2023/12/29 07:11:49;;;;;;;;;;;8.80;99.90;;;;;;5129302;27;20598;-69
2023/12/29 07:14:15;;;;;;;;;;;8.80;99.90;;;;;;5109440;27;20359;-69
2023/12/29 07:16:41;;;;;;;;;;;8.80;99.90;;;;;;5135882;27;19907;-69
2023/12/29 07:19:06;;;;;;;;;;;8.80;99.90;;;;;;5119349;27;20361;-69
2023/12/29 07:21:32;;;;;;;;;;;8.80;99.90;;;;;;5136721;27;20372;-69
2023/12/29 07:23:57;;;;;;;;;;;8.80;99.90;;;;;;5123183;27;20348;-69
2023/12/29 07:26:23;;;;;;;;;;;8.80;99.90;;;;;;5113542;27;19943;-69
2023/12/29 07:28:53;;;;;;;;;;;8.80;99.90;;;;;;5138582;27;19911;-69
2023/12/29 07:31:19;;;;;;;;;;;8.80;99.90;;;;;;5136037;27;19918;-69
2023/12/29 07:33:45;;;;;;;;;;;8.80;99.90;;;;;;5138851;27;19914;-69
2023/12/29 07:36:11;;;;;;;;;;;8.80;99.90;;;;;;5148054;27;19907;-69
2023/12/29 07:38:36;;;;;;;;;;;8.80;99.90;;;;;;5146579;27;19919;-69
2023/12/29 07:41:02;;;;;;;;;;;8.80;99.90;;;;;;5129238;27;19954;-69
2023/12/29 07:43:28;;;;;;;;;;;8.80;99.90;;;;;;5131992;27;19918;-69
2023/12/29 07:45:53;;;;;;;;;;;8.80;99.90;;;;;;5118399;27;19919;-69
2023/12/29 07:48:19;;;;;;;;;;;8.80;99.90;;;;;;5127416;27;19963;-69
2023/12/29 07:50:45;;;;;;;;;;;8.80;99.90;;;;;;5135007;27;20021;-69
2023/12/29 07:53:10;;;;;;;;;;;8.80;99.90;;;;;;5127527;27;19915;-69
2023/12/29 07:55:42;;;;;;;;;;;8.70;99.90;;;;;;5128031;27;20627;-69
2023/12/29 07:58:09;;;;;;;;;;;8.70;99.90;;;;;;5147280;27;19911;-69
2023/12/29 08:00:35;;;;;;;;;;;8.80;99.90;;;;;;5117495;27;19912;-69
2023/12/29 08:03:00;;;;;;;;;;;8.70;99.90;;;;;;5114652;27;19914;-70
2023/12/29 08:05:26;;;;;;;;;;;8.70;99.90;;;;;;5114453;27;19929;-69
2023/12/29 08:07:51;;;;;;;;;;;8.70;99.90;;;;;;5109953;27;20627;-69
2023/12/29 08:10:17;;;;;;;;;;;8.70;99.90;;;;;;5127498;27;19955;-69
2023/12/29 08:12:43;;;;;;;;;;;8.70;99.90;;;;;;5132126;27;19922;-69
2023/12/29 08:15:08;;;;;;;;;;;8.70;99.90;;;;;;5131711;27;19921;-69
2023/12/29 08:17:34;;;;;;;;;;;8.70;99.90;;;;;;5114253;27;19912;-69
2023/12/29 08:19:59;;;;;;;;;;;8.70;99.90;;;;;;5107743;27;19923;-69
2023/12/29 08:22:30;;;;;;;;;;;8.70;99.90;;;;;;5126016;27;20286;-69
2023/12/29 08:24:55;;;;;;;;;;;8.70;99.90;;;;;;5130290;27;19950;-69
2023/12/29 08:27:25;;;;;;;;;;;8.70;99.90;;;;;;5109103;27;19953;-69
2023/12/29 08:29:51;;;;;;;;;;;8.70;99.90;;;;;;5107700;27;19919;-69
2023/12/29 08:32:17;;;;;;;;;;;8.70;99.90;;;;;;5115154;27;19934;-69
2023/12/29 08:34:42;;;;;;;;;;;8.70;99.90;;;;;;5116935;27;20395;-69
2023/12/29 08:37:08;;;;;;;;;;;8.70;99.90;;;;;;5130211;27;20642;-69
2023/12/29 08:39:33;;;;;;;;;;;8.70;99.90;;;;;;5108090;27;20798;-69
2023/12/29 08:41:59;;;;;;;;;;;8.70;99.90;;;;;;5124741;27;19911;-69
2023/12/29 08:44:25;;;;;;;;;;;8.70;99.90;;;;;;5125300;27;20006;-69
2023/12/29 08:46:50;;;;;;;;;;;8.70;99.90;;;;;;5119859;27;19911;-69
2023/12/29 08:49:16;;;;;;;;;;;8.70;99.90;;;;;;5130623;27;19915;-69
2023/12/29 08:51:41;;;;;;;;;;;8.70;99.90;;;;;;5123327;27;19953;-69
2023/12/29 08:54:07;;;;;;;;;;;8.70;99.90;;;;;;5127171;27;19926;-69
2023/12/29 08:56:32;;;;;;;;;;;8.70;99.90;;;;;;5131079;27;20292;-69
2023/12/29 08:58:58;;;;;;;;;;;8.70;99.90;;;;;;5121328;27;19957;-69
2023/12/29 09:01:23;;;;;;;;;;;8.70;99.90;;;;;;5127064;27;19915;-69
2023/12/29 09:03:49;;;;;;;;;;;8.70;99.90;;;;;;5136293;27;19934;-69
2023/12/29 09:06:15;;;;;;;;;;;8.70;99.90;;;;;;5115806;27;19911;-69
2023/12/29 09:08:41;;;;;;;;;;;8.70;99.90;;;;;;5121106;27;19908;-69
2023/12/29 09:11:06;;;;;;;;;;;8.70;99.90;;;;;;5124948;27;19926;-69
2023/12/29 09:13:32;;;;;;;;;;;8.70;99.90;;;;;;5132531;27;19922;-69
2023/12/29 09:15:58;;;;;;;;;;;8.70;99.90;;;;;;5112998;27;19939;-69
2023/12/29 09:18:23;;;;;;;;;;;8.70;99.90;;;;;;5112736;27;20356;-69
2023/12/29 09:20:49;;;;;;;;;;;8.70;99.90;;;;;;5123664;27;19931;-70
2023/12/29 09:23:14;;;;;;;;;;;8.70;99.90;;;;;;5131873;27;19999;-69
2023/12/29 09:25:41;;;;;;;;;;;8.70;99.90;;;;;;5122690;27;19911;-69
2023/12/29 09:28:06;;;;;;;;;;;8.70;99.90;;;;;;5121081;27;19915;-69
2023/12/29 09:30:32;;;;;;;;;;;8.80;99.90;;;;;;5127485;27;19918;-69
2023/12/29 09:32:57;;;;;;;;;;;8.80;99.90;;;;;;5115850;27;19972;-69
2023/12/29 09:35:23;;;;;;;;;;;8.80;99.90;;;;;;5131775;27;19995;-69
2023/12/29 09:37:48;;;;;;;;;;;8.80;99.90;;;;;;5127966;27;19912;-69
2023/12/29 09:40:14;;;;;;;;;;;8.80;99.90;;;;;;5130358;27;19911;-69
2023/12/29 09:42:40;;;;;;;;;;;8.80;99.90;;;;;;5124849;27;19919;-69
2023/12/29 09:45:09;;;;;;;;;;;8.80;99.90;;;;;;5137420;27;20075;-69
2023/12/29 09:47:36;;;;;;;;;;;8.80;99.90;;;;;;5143629;27;19919;-69
2023/12/29 09:50:03;;;;;;;;;;;8.80;99.90;;;;;;5139678;27;19911;-69
2023/12/29 09:52:29;;;;;;;;;;;8.90;99.90;;;;;;5124465;27;19988;-69
2023/12/29 09:54:54;;;;;;;;;;;8.90;99.90;;;;;;5145186;27;19940;-69
2023/12/29 09:57:20;;;;;;;;;;;8.80;99.90;;;;;;5106217;28;19918;-69
2023/12/29 09:59:48;;;;;;;;;;;8.80;99.90;;;;;;5132056;27;20359;-69
2023/12/29 10:02:16;;;;;;;;;;;8.80;99.90;;;;;;5132566;27;19998;-69
2023/12/29 10:04:42;;;;;;;;;;;8.90;99.90;;;;;;5123912;27;19912;-69
2023/12/29 10:07:08;;;;;;;;;;;8.80;99.90;;;;;;5131679;27;20387;-69
2023/12/29 10:09:33;;;;;;;;;;;8.80;99.90;;;;;;5127280;27;19918;-69
2023/12/29 10:12:02;;;;;;;;;;;8.90;99.90;;;;;;5144914;27;19964;-69
2023/12/29 10:14:37;;;;;;;;;;;8.90;99.90;;;;;;5128064;27;20543;-69
2023/12/29 10:17:32;;;;;;;;;;;8.90;99.90;;;;;;5125730;27;20321;-69
2023/12/29 10:20:10;;;;;;;;;;;8.90;99.90;;;;;;5121470;27;19938;-69
2023/12/29 10:22:51;;;;;;;;;;;8.90;99.90;;;;;;5140229;27;20766;-70
2023/12/29 10:25:17;;;;;;;;;;;8.90;99.90;;;;;;5142627;27;20801;-69
2023/12/29 10:27:43;;;;;;;;;;;8.90;99.90;;;;;;5136283;27;20006;-69
2023/12/29 10:30:09;;;;;;;;;;;8.90;99.90;;;;;;5127537;27;19912;-69
2023/12/29 10:32:35;;;;;;;;;;;8.90;99.90;;;;;;5118255;27;19919;-69
2023/12/29 10:35:10;;;;;;;;;;;8.90;99.90;;;;;;5131955;27;19915;-69
2023/12/29 10:37:36;;;;;;;;;;;8.90;99.90;;;;;;5138588;27;19915;-69
2023/12/29 10:40:01;;;;;;;;;;;8.90;99.90;;;;;;5135323;27;19911;-69
2023/12/29 10:42:28;;;;;;;;;;;8.90;99.90;;;;;;5125101;27;19918;-69
2023/12/29 10:45:07;;;;;;;;;;;8.90;99.90;;;;;;5125797;27;20538;-69
2023/12/29 10:47:33;;;;;;;;;;;8.90;99.90;;;;;;5135820;27;19911;-69
2023/12/29 10:50:00;;;;;;;;;;;8.90;99.90;;;;;;5127360;27;19927;-69
2023/12/29 10:52:25;;;;;;;;;;;8.90;99.90;;;;;;5143680;27;19922;-69
2023/12/29 10:55:03;;;;;;;;;;;8.90;99.90;;;;;;5128936;27;19911;-69
2023/12/29 10:57:28;;;;;;;;;;;9.00;99.90;;;;;;5132102;27;20651;-69
2023/12/29 10:59:55;;;;;;;;;;;9.00;99.90;;;;;;5116683;27;19912;-69
2023/12/29 11:02:20;;;;;;;;;;;9.00;99.90;;;;;;5135852;27;20356;-69
2023/12/29 11:04:45;;;;;;;;;;;9.00;99.90;;;;;;5129778;27;19971;-69
2023/12/29 11:07:14;;;;;;;;;;;9.10;99.90;;;;;;5133471;27;20022;-69
2023/12/29 11:09:40;;;;;;;;;;;9.10;99.90;;;;;;5130252;27;20588;-69
2023/12/29 11:12:06;;;;;;;;;;;9.10;99.90;;;;;;5120844;27;20330;-69
2023/12/29 11:14:32;;;;;;;;;;;9.10;99.90;;;;;;5123101;27;19929;-69
2023/12/29 11:17:00;;;;;;;;;;;9.10;99.90;;;;;;5117226;27;19916;-69
2023/12/29 11:19:26;;;;;;;;;;;9.20;99.90;;;;;;5139527;27;19910;-69
2023/12/29 11:21:53;;;;;;;;;;;9.20;99.90;;;;;;5139271;27;19942;-69
2023/12/29 11:24:19;;;;;;;;;;;9.20;99.90;;;;;;5148311;27;19973;-69
2023/12/29 11:26:44;;;;;;;;;;;9.20;99.90;;;;;;5137398;27;20498;-69
2023/12/29 11:29:11;;;;;;;;;;;9.30;99.90;;;;;;5119279;27;19963;-69
2023/12/29 11:31:37;;;;;;;;;;;9.30;99.90;;;;;;5129088;27;19962;-69
2023/12/29 11:34:29;;;;;;;;;;;9.30;99.90;;;;;;5135019;27;20392;-69
2023/12/29 11:36:59;;;;;;;;;;;9.30;99.90;;;;;;5116621;27;19911;-69
2023/12/29 11:39:30;;;;;;;;;;;9.30;99.90;;;;;;5143394;27;19911;-69
2023/12/29 11:42:30;;;;;;;;;;;9.30;99.90;;;;;;5137863;27;19949;-69
2023/12/29 11:44:56;;;;;;;;;;;9.40;99.90;;;;;;5060609;27;20606;-69
2023/12/29 11:47:34;;;;;;;;;;;9.40;99.90;;;;;;5124491;27;19919;-69
2023/12/29 11:50:00;;;;;;;;;;;9.40;99.90;;;;;;5116380;27;19915;-69
2023/12/29 11:52:36;;;;;;;;;;;9.40;99.90;;;;;;5101152;27;20046;-69
2023/12/29 11:55:08;;;;;;;;;;;9.40;99.90;;;;;;5106157;27;20714;-69
2023/12/29 11:57:36;;;;;;;;;;;9.50;99.90;;;;;;5131362;27;19915;-69
2023/12/29 12:00:01;;;;;;;;;;;9.50;99.90;;;;;;5118580;27;19912;-69
2023/12/29 12:02:28;;;;;;;;;;;9.40;99.90;;;;;;5118512;27;20359;-69
2023/12/29 12:04:53;;;;;;;;;;;9.40;99.90;;;;;;5143162;27;19912;-69
2023/12/29 12:07:22;;;;;;;;;;;9.40;99.90;;;;;;5140559;27;19918;-69
2023/12/29 12:09:52;;;;;;;;;;;9.50;99.90;;;;;;5127222;27;20334;-69
2023/12/29 12:12:37;;;;;;;;;;;9.50;99.90;;;;;;5126277;27;19955;-69
2023/12/29 12:15:02;;;;;;;;;;;9.50;99.90;;;;;;5118947;27;19986;-69
2023/12/29 12:17:32;;;;;;;;;;;9.50;99.90;;;;;;5117930;27;19972;-69
2023/12/29 12:20:02;;;;;;;;;;;9.50;99.90;;;;;;5116138;27;20280;-69
2023/12/29 12:22:29;;;;;;;;;;;9.50;99.90;;;;;;5125636;27;20249;-69
2023/12/29 12:24:55;;;;;;;;;;;9.50;99.90;;;;;;5137731;27;19918;-69
2023/12/29 12:27:25;;;;;;;;;;;9.50;99.90;;;;;;5131138;27;19911;-69
2023/12/29 12:29:54;;;;;;;;;;;9.50;99.90;;;;;;5097026;27;19911;-69
2023/12/29 12:32:21;;;;;;;;;;;9.50;99.90;;;;;;5121443;27;19920;-69
2023/12/29 12:34:47;;;;;;;;;;;9.50;99.90;;;;;;5127442;27;20039;-69
2023/12/29 12:37:18;;;;;;;;;;;9.50;99.90;;;;;;5141453;27;20002;-69
2023/12/29 12:39:43;;;;;;;;;;;9.50;99.90;;;;;;5110377;27;19961;-69
2023/12/29 12:42:09;;;;;;;;;;;9.50;99.90;;;;;;5139526;27;19914;-69
2023/12/29 12:44:38;;;;;;;;;;;9.50;99.90;;;;;;5129411;27;19918;-69
2023/12/29 12:47:06;;;;;;;;;;;9.50;99.90;;;;;;5095148;28;20613;-69
2023/12/29 12:49:32;;;;;;;;;;;9.40;99.90;;;;;;5130885;27;19958;-69
2023/12/29 12:51:58;;;;;;;;;;;9.50;99.90;;;;;;5098010;27;19969;-69
2023/12/29 12:54:23;;;;;;;;;;;9.40;99.90;;;;;;5111246;27;20772;-69
2023/12/29 12:56:49;;;;;;;;;;;9.40;99.90;;;;;;5136171;27;19911;-69
2023/12/29 12:59:16;;;;;;;;;;;9.40;99.90;;;;;;5133855;27;20003;-69
2023/12/29 13:01:41;;;;;;;;;;;9.40;99.90;;;;;;5116940;27;19915;-69
2023/12/29 13:04:08;;;;;;;;;;;9.40;99.90;;;;;;5134206;27;19934;-69
2023/12/29 13:06:34;;;;;;;;;;;9.40;99.90;;;;;;5133723;27;19912;-69
2023/12/29 13:09:01;;;;;;;;;;;9.40;99.90;;;;;;5116880;27;19918;-69
2023/12/29 13:11:27;;;;;;;;;;;9.40;99.90;;;;;;5141731;27;19907;-69
2023/12/29 13:13:56;;;;;;;;;;;9.40;99.90;;;;;;5131666;27;20628;-69
2023/12/29 13:16:32;;;;;;;;;;;9.40;99.90;;;;;;5112039;27;19942;-69
2023/12/29 13:19:14;;;;;;;;;;;9.30;99.90;;;;;;5120822;27;19964;-69
2023/12/29 13:21:39;;;;;;;;;;;9.40;99.90;;;;;;5119413;27;19919;-69
2023/12/29 13:24:05;;;;;;;;;;;9.40;99.90;;;;;;5117826;27;20335;-69
2023/12/29 13:26:30;;;;;;;;;;;9.30;99.90;;;;;;5124777;27;20615;-69
2023/12/29 13:28:56;;;;;;;;;;;9.30;99.90;;;;;;5141886;27;20730;-69
2023/12/29 13:31:22;;;;;;;;;;;9.40;99.90;;;;;;5116658;27;20437;-69
2023/12/29 13:33:57;;;;;;;;;;;9.30;99.90;;;;;;5123572;27;19911;-69
2023/12/29 13:36:33;;;;;;;;;;;9.30;99.90;;;;;;5125721;27;19934;-69
2023/12/29 13:39:03;;;;;;;;;;;9.30;99.90;;;;;;5125223;27;19998;-69
2023/12/29 13:41:29;;;;;;;;;;;9.30;99.90;;;;;;5124830;27;20820;-69
2023/12/29 13:43:55;;;;;;;;;;;9.30;99.90;;;;;;5122572;27;19911;-69
2023/12/29 13:46:21;;;;;;;;;;;9.30;99.90;;;;;;5124642;27;19942;-69
2023/12/29 13:48:46;;;;;;;;;;;9.30;99.90;;;;;;5122663;27;19912;-69
2023/12/29 13:51:12;;;;;;;;;;;9.30;99.90;;;;;;5120412;27;20038;-68
2023/12/29 13:53:38;;;;;;;;;;;9.30;99.90;;;;;;5113035;27;19922;-69
2023/12/29 13:56:08;;;;;;;;;;;9.30;99.90;;;;;;5133105;27;19911;-69
2023/12/29 13:58:33;;;;;;;;;;;9.30;99.90;;;;;;5105676;27;19912;-69
2023/12/29 14:01:00;;;;;;;;;;;9.30;99.90;;;;;;5111726;28;19912;-69
2023/12/29 14:03:34;;;;;;;;;;;9.30;99.90;;;;;;5111423;27;19993;-69
2023/12/29 14:06:03;;;;;;;;;;;9.30;99.90;;;;;;5121315;27;19912;-69
2023/12/29 14:08:34;;;;;;;;;;;9.30;99.90;;;;;;5122504;27;19911;-69
2023/12/29 14:11:00;;;;;;;;;;;9.30;99.90;;;;;;5110267;27;20451;-69
2023/12/29 14:13:26;;;;;;;;;;;9.30;99.90;;;;;;5095454;28;19976;-69
2023/12/29 14:15:51;;;;;;;;;;;9.30;99.90;;;;;;5121133;27;19911;-69
2023/12/29 14:18:20;;;;;;;;;;;9.30;99.90;;;;;;5127920;27;19921;-69
2023/12/29 14:20:45;;;;;;;;;;;9.30;99.90;;;;;;5123529;27;19908;-69
2023/12/29 14:23:11;;;;;;;;;;;9.30;99.90;;;;;;5117891;27;19911;-69
2023/12/29 14:25:37;;;;;;;;;;;9.30;99.90;;;;;;5126687;27;20433;-69
2023/12/29 14:28:16;;;;;;;;;;;9.30;99.90;;;;;;5110645;27;19907;-69